Cullenfrost Bankers Inc (CFR) Latest Bloomsberg Price


Mffais Ranking #559 Overall / #39 Industry
Industry: Banks

Number of Companies: 224 (Ranking #717 Overall/#22 Industry)
Inflow: $ 90,838 (K) (Ranking #1004 Overall/#35 Industry)
Outflow: $ -84,437 (K)
Mffais Flow: $ 6,401 (K) (Ranking #559 Overall/#39 Industry)


Receive a FREE weekly executive review of stocks moving into the top 10, taking the top industy spot or moving up within their industry. Sent directly to your Inbox every Saturday. Sign up today and get last week's review immediately sent to you.

We value and respect your privacy. Please read our Terms and Conditions which states our firm commitment to your privacy. Your email address will not be shared with a third party, nor will it be sold or used for purposes other than subscription for the weekly review.

Owner CPOR Shares Action Qty Chg Invested (K) Total Current Value (K)
Wbi Investments Inc 2016-09-30 182,861 New Holding 182,861 $ 12,710 $ 12,710
Champlain Investment Partners Llc 2016-09-30 1,035,015 Added More 130,945 $ 9,101 $ 71,943
Mairs Power Inc 2016-09-30 106,200 New Holding 106,200 $ 7,381 $ 7,381
Edge Asset Management Inc 2016-09-30 865,866 Added More 102,580 $ 7,130 $ 60,186
Cullen Frost Bankers Inc 2016-09-30 345,668 Added More 96,814 $ 6,729 $ 24,027
State Of Tennessee Treasury Department 2016-09-30 128,800 Added More 90,000 $ 6,255 $ 8,952
Ahl Partners Llp 2016-09-30 68,953 New Holding 68,953 $ 4,792 $ 4,792
Lord Abbett Co Llc 2016-09-30 326,862 Added More 47,410 $ 3,295 $ 22,720
Dimensional Fund Advisors Lp 2016-09-30 509,404 Added More 46,894 $ 3,259 $ 35,408
Chicago Equity Partners Llc 2016-09-30 39,585 New Holding 39,585 $ 2,751 $ 2,751
Vident Investment Advisory Llc 2016-09-30 33,508 New Holding 33,508 $ 2,329 $ 2,329
Guggenheim Capital Llc 2016-09-30 74,665 Added More 32,134 $ 2,233 $ 5,189
Proshare Advisors Llc 2016-09-30 75,613 Added More 27,784 $ 1,931 $ 5,255
Northern Trust Corp 2016-09-30 520,005 Added More 25,909 $ 1,800 $ 36,145
Palisade Capital Management Llc Nj 2016-09-30 146,977 Added More 24,227 $ 1,684 $ 10,216
Sterling Capital Management Llc 2016-09-30 20,507 New Holding 20,507 $ 1,425 $ 1,425
Coho Partners Ltd 2016-09-30 876,052 Added More 19,843 $ 1,379 $ 60,894
Walleye Trading Llc 2016-09-30 53,072 Added More 17,464 $ 1,213 $ 3,689
Zurich Insurance Group Ltd Fi 2016-09-30 16,800 New Holding 16,800 $ 1,167 $ 1,167
Comerica Bank 2016-09-30 133,471 Added More 16,018 $ 1,113 $ 9,277
Keybank National Association Oh 2016-09-30 11,524 New Holding 11,524 $ 801 $ 801
Raymond James Associates 2016-09-30 109,155 Added More 8,010 $ 556 $ 7,587
M T Bank Corp 2016-09-30 12,202 Added More 7,070 $ 491 $ 848
Kcg Holdings Inc 2016-09-30 6,635 New Holding 6,635 $ 461 $ 461
Pnc Financial Services Group Inc 2016-09-30 84,880 Added More 6,541 $ 454 $ 5,900
Alpha Windward Llc 2016-09-30 6,369 Added More 6,120 $ 425 $ 442
Parametric Portfolio Associates Llc 2016-09-30 270,278 Added More 5,897 $ 409 $ 18,787
Confluence Investment Management Llc 2016-09-30 125,246 Added More 5,829 $ 405 $ 8,705
Bb T Securities Llc 2016-09-30 56,511 Added More 5,448 $ 378 $ 3,928
Raymond James Financial Services Advisors Inc 2016-09-30 17,371 Added More 5,154 $ 358 $ 1,207
Rowland Co Investment Counsel Adv 2016-09-30 56,461 Added More 5,144 $ 357 $ 3,924
Blackrock Inc 2016-09-30 146,157 Added More 4,850 $ 337 $ 10,159
Tributary Capital Management Llc 2016-09-30 68,797 Added More 4,692 $ 326 $ 4,782
Smith Salley Associates 2016-09-30 29,043 Added More 4,162 $ 289 $ 2,018
Legal General Group Plc 2016-09-30 33,293 Added More 4,051 $ 281 $ 2,314
Cantab Capital Partners Llp 2016-09-30 3,779 New Holding 3,779 $ 262 $ 262
Bank Of Hawaii 2016-09-30 3,700 New Holding 3,700 $ 257 $ 257
Hawkins Capital L P 2016-09-30 3,700 New Holding 3,700 $ 257 $ 257
Stifel Financial Corp 2016-09-30 50,820 Added More 3,584 $ 249 $ 3,532
World Asset Management Inc 2016-09-30 3,568 New Holding 3,568 $ 248 $ 248
Yorktown Management Research Co Inc 2016-09-30 3,000 New Holding 3,000 $ 208 $ 208
Nisa Investment Advisors Llc 2016-09-30 54,410 Added More 3,000 $ 208 $ 3,782
Holt Capital Advisors L L C Dba Holt Capital Partners L P 2016-09-30 2,938 New Holding 2,938 $ 204 $ 204
Klingenstein Fields Co Llc 2016-09-30 2,900 New Holding 2,900 $ 201 $ 201
Aperio Group Llc 2016-09-30 31,354 Added More 2,579 $ 179 $ 2,179
Mutual Of America Capital Management Llc 2016-09-30 42,281 Added More 2,338 $ 162 $ 2,938
Envestnet Asset Management Inc 2016-09-30 17,108 Added More 2,070 $ 143 $ 1,189
Ronald Blue Co Llc 2016-09-30 79,303 Added More 1,860 $ 129 $ 5,512
Liberty Mutual Group Asset Management Inc 2016-09-30 25,364 Added More 1,686 $ 117 $ 1,763
Coastline Trust Co 2016-09-30 25,060 Added More 1,680 $ 116 $ 1,741
Ramsey Quantitative Systems 2016-09-30 10,129 Added More 1,582 $ 109 $ 704
Sei Investments Co 2016-09-30 46,999 Added More 1,512 $ 105 $ 3,266
Callahan Advisors Llc 2016-09-30 17,278 Added More 1,501 $ 104 $ 1,200
Next Financial Group Inc 2016-09-30 1,492 New Holding 1,492 $ 103 $ 103
Tower Research Capital Llc Trc 2016-09-30 1,463 Added More 1,428 $ 99 $ 101
Nn Investment Partners Holdings N V 2016-09-30 8,835 Added More 1,395 $ 96 $ 614
Teachers Retirement System Of The State Of Kentucky 2016-09-30 32,888 Added More 1,200 $ 83 $ 2,286
American International Group Inc 2016-09-30 106,755 Added More 1,115 $ 77 $ 7,420
Thrivent Financial For Lutherans 2016-09-30 8,670 Added More 1,020 $ 70 $ 602
First Premier Bank 2016-09-30 1,000 New Holding 1,000 $ 69 $ 69
Blackrock Investment Management Llc 2016-09-30 186,276 Added More 975 $ 67 $ 12,948
California State Teachers Retirement System 2016-09-30 116,505 Added More 900 $ 62 $ 8,098
Advisor Group Inc 2016-09-30 7,181 Added More 887 $ 61 $ 499
Retirement Systems Of Alabama 2016-09-30 71,229 Added More 859 $ 59 $ 4,951
South Texas Money Management Ltd 2016-09-30 9,270 Added More 805 $ 55 $ 644
Oregon Public Employees Retirement Fund 2016-09-30 19,100 Added More 776 $ 53 $ 1,327
Hallmark Capital Management Inc 2016-09-30 20,476 Added More 750 $ 52 $ 1,423
Mason Street Advisors Llc 2016-09-30 25,575 Added More 697 $ 48 $ 1,777
Capstone Asset Management Co 2016-09-30 34,675 Added More 635 $ 44 $ 2,410
Smith Asset Management Group Lp 2016-09-30 590 New Holding 590 $ 41 $ 41
Capital One National Association 2016-09-30 8,897 Added More 574 $ 39 $ 618
Pacer Advisors Inc 2016-09-30 5,907 Added More 511 $ 35 $ 410
Ladenburg Thalmann Financial Services Inc 2016-09-30 2,548 Added More 506 $ 35 $ 177
Texas Permanent School Fund 2016-09-30 42,108 Added More 397 $ 27 $ 2,926
Argent Trust Co 2016-09-30 34,872 Added More 392 $ 27 $ 2,423
Ls Investment Advisors Llc 2016-09-30 3,572 Added More 305 $ 21 $ 248
State Treasurer State Of Michigan 2016-09-30 22,200 Added More 300 $ 20 $ 1,543
Zurcher Kantonalbank Zurich Cantonalbank 2016-09-30 1,815 Added More 279 $ 19 $ 126
Voya Financial Advisors Inc 2016-09-30 5,704 Added More 276 $ 19 $ 396
Benjamin F Edwards Company Inc 2016-09-30 269 New Holding 269 $ 18 $ 18
Ckw Financial Group 2016-09-30 260 New Holding 260 $ 18 $ 18
Ifp Advisors Inc 2016-09-30 782 Added More 251 $ 17 $ 54
Arizona State Retirement System 2016-09-30 21,556 Added More 200 $ 13 $ 1,498
Cadence Capital Management Llc 2016-09-30 8,251 Added More 164 $ 11 $ 573
Commonwealth Equity Services Inc 2016-09-30 17,063 Added More 152 $ 10 $ 1,186
Mosaic Family Wealth Llc 2016-09-30 1,594 Added More 132 $ 9 $ 110
Advantus Capital Management Inc 2016-09-30 6,727 Added More 121 $ 8 $ 467
Texan Capital Management 2016-09-30 34,627 Added More 108 $ 7 $ 2,406
Northwestern Mutual Investment Management Company Llc 2016-09-30 9,519 Added More 101 $ 7 $ 661
Capital Fund Management S A 2016-09-30 15,600 Added More 100 $ 6 $ 1,084
High Point Bank Trust Co 2016-09-30 278 Added More 100 $ 6 $ 19
Creative Planning 2016-09-30 3,224 Added More 92 $ 6 $ 224
Probity Advisors Inc 2016-09-30 11,698 Added More 72 $ 5 $ 813
Bronfman E L Rothschild L P 2016-09-30 281 Added More 68 $ 4 $ 19
Woodmont Investment Counsel Llc 2016-09-30 42 New Holding 42 $ 2 $ 2
Msi Financial Services Inc 2016-09-30 4,292 Added More 10 $ 0 $ 298
Gemmer Asset Management Llc 2016-09-30 48 No Change 0 $ 0 $ 3
Cannell Peter B Co Inc 2016-09-30 6,270 No Change 0 $ 0 $ 435
Fifth Third Bancorp 2016-09-30 40,461 No Change 0 $ 0 $ 2,812
Central Trust Co 2016-09-30 5,600 No Change 0 $ 0 $ 389
New York State Teachers Retirement System 2016-09-30 83,417 No Change 0 $ 0 $ 5,798
First Manhattan Co 2016-09-30 64,353 No Change 0 $ 0 $ 4,473
Panagora Asset Management Inc 2016-09-30 2,958 No Change 0 $ 0 $ 205
Kempner Capital Management Inc 2016-09-30 76,876 No Change 0 $ 0 $ 5,343
Leavell Investment Management Inc 2016-09-30 5,585 No Change 0 $ 0 $ 388
Qci Asset Management Inc Ny 2016-09-30 214 No Change 0 $ 0 $ 14
Bradley Foster Sargent Inc Ct 2016-09-30 7,785 No Change 0 $ 0 $ 541
Arcadia Investment Management Corp Mi 2016-09-30 378 No Change 0 $ 0 $ 26
Enterprise Financial Services Corp 2016-09-30 17 No Change 0 $ 0 $ 1
Sanders Morris Harris Inc 2016-09-30 14,435 No Change 0 $ 0 $ 1,003
Dreman Value Management L L C 2016-09-30 3,743 No Change 0 $ 0 $ 260
Boston Advisors Llc 2016-09-30 6,200 No Change 0 $ 0 $ 430
Prospector Partners Llc 2016-09-30 43,800 No Change 0 $ 0 $ 3,044
Gabelli Funds Llc 2016-09-30 39,000 No Change 0 $ 0 $ 2,710
Third Avenue Management Llc 2016-09-30 82,323 No Change 0 $ 0 $ 5,722
Massmutual Trust Co Fsb Adv 2016-06-30 522 No Change 0 $ 0 $ 33
Whittier Trust Co 2016-09-30 205 No Change 0 $ 0 $ 14
Northwestern Mutual Wealth Management Co 2016-09-30 183 No Change 0 $ 0 $ 12
Weaver C Barksdale Associates Inc 2016-09-30 70 No Change 0 $ 0 $ 4
Milestone Group Inc 2016-09-30 37,965 No Change 0 $ 0 $ 2,638
Azimuth Capital Management Llc 2016-09-30 7,175 No Change 0 $ 0 $ 498
Plante Moran Financial Advisors Llc 2016-09-30 250 No Change 0 $ 0 $ 17
Jcsd Capital Llc 2016-09-30 50,000 No Change 0 $ 0 $ 3,475
Parkside Financial Bank Trust 2016-09-30 173 No Change 0 $ 0 $ 12
Sevenbridge Financial Group Llc 2016-09-30 242 No Change 0 $ 0 $ 16
Jacobus Wealth Management Inc 2016-09-30 8,000 No Change 0 $ 0 $ 556
Nuveen Asset Management Llc 2016-09-30 21,743 No Change 0 $ 0 $ 1,511
Proficio Capital Partners Llc 2016-09-30 456 No Change 0 $ 0 $ 31
Quadrant Capital Group Llc 2016-09-30 19 No Change 0 $ 0 $ 1
Zions Bancorporation 2016-09-30 325 No Change 0 $ 0 $ 22
South Dakota Investment Council 2016-09-30 56,200 No Change 0 $ 0 $ 3,906
Buckingham Asset Management Llc 2016-09-30 33,220 No Change 0 $ 0 $ 2,309
Utah Retirement Systems 2016-09-30 9,637 No Change 0 $ 0 $ 669
Integrated Wealth Management 2016-09-30 18 No Change 0 $ 0 $ 1
Winfield Associates Inc 2016-09-30 40 No Change 0 $ 0 $ 2
Ftb Advisors Inc 2016-09-30 192 No Change 0 $ 0 $ 13
Formidable Asset Management Llc 2016-09-30 5,645 No Change 0 $ 0 $ 392
Swift Run Capital Management Llc 2016-09-30 12,364 No Change 0 $ 0 $ 859
Eachwin Capital Lp 2016-09-30 7,939 No Change 0 $ 0 $ 551
Somerset Trust Co 2016-09-30 7,157 Sold Some -1 $ -0 $ 497
Us Financial Advisors Llc 2016-06-30 0 Sold All -26 $ -1 $ 0
Bokf Na 2016-09-30 16,257 Sold Some -33 $ -2 $ 1,130
Charter Trust Co 2016-09-30 14,396 Sold Some -58 $ -4 $ 1,000
Ikos Cif Ltd 2016-09-30 0 Sold All -60 $ -4 $ 0
First Dallas Securities Inc 2016-09-30 7,775 Sold Some -75 $ -5 $ 540
First Quadrant L P Ca 2016-09-30 267,790 Sold Some -75 $ -5 $ 18,614
Independent Portfolio Consultants Inc 2016-09-30 5,595 Sold Some -90 $ -6 $ 388
Eaton Vance Management 2016-09-30 3,600 Sold Some -100 $ -6 $ 250
Ledyard National Bank 2016-09-30 470 Sold Some -100 $ -6 $ 32
Sunbelt Securities Inc 2016-09-30 0 Sold All -110 $ -7 $ 0
Lebenthal Holdings Llc 2016-06-30 12,120 Sold Some -130 $ -8 $ 772
First Niagara Bank 2016-06-30 15,330 Sold Some -215 $ -13 $ 976
First National Bank Of Omaha 2016-09-30 20,140 Sold Some -230 $ -15 $ 1,399
Point72 Asia Hong Kong Ltd 2016-09-30 0 Sold All -300 $ -20 $ 0
Ibm Retirement Fund 2016-09-30 5,030 Sold Some -334 $ -23 $ 349
Fruth Investment Management 2016-09-30 3,000 Sold Some -400 $ -27 $ 208
Exencial Wealth Advisors Llc 2016-09-30 3,004 Sold Some -405 $ -28 $ 208
Lebenthal Asset Management Llc 2016-09-30 11,705 Sold Some -415 $ -28 $ 813
Villere St Denis J Co Llc 2016-09-30 67,725 Sold Some -450 $ -31 $ 4,707
Cubist Systematic Strategies Llc 2016-09-30 3,437 Sold Some -484 $ -33 $ 238
Checchi Capital Advisers Llc 2016-09-30 0 Sold All -557 $ -38 $ 0
Whittier Trust Co Of Nevada Inc 2016-09-30 0 Sold All -580 $ -40 $ 0
Oppenheimer Co Inc 2016-09-30 9,101 Sold Some -584 $ -40 $ 632
Neville Rodie Shaw Inc 2016-09-30 49,804 Sold Some -700 $ -48 $ 3,461
Fdx Advisors Inc 2016-09-30 6,828 Sold Some -717 $ -49 $ 474
Tower Bridge Advisors 2016-09-30 44,735 Sold Some -750 $ -52 $ 3,109
Arbor Wealth Management Llc 2016-09-30 5,914 Sold Some -835 $ -58 $ 411
B T Capital Management Dba Alpha Capital Management 2016-09-30 39,763 Sold Some -860 $ -59 $ 2,763
First Merchants Corp 2016-09-30 5,240 Sold Some -902 $ -62 $ 364
Bessemer Group Inc 2016-09-30 900 Sold Some -980 $ -68 $ 62
Wfg Advisors Lp 2016-09-30 23,828 Sold Some -1,057 $ -73 $ 1,656
Howland Capital Management Llc 2016-09-30 63,624 Sold Some -1,080 $ -75 $ 4,422
Old Mutual Customised Solutions Proprietary Ltd 2016-09-30 1,500 Sold Some -1,200 $ -83 $ 104
Nomura Asset Management Co Ltd 2016-09-30 0 Sold All -1,250 $ -86 $ 0
Brandywine Global Investment Management Llc 2016-09-30 117,044 Sold Some -1,250 $ -86 $ 8,135
Quadrature Capital Ltd 2016-09-30 5,616 Sold Some -1,284 $ -89 $ 390
King Luther Capital Management Corp 2016-09-30 2,295,355 Sold Some -1,285 $ -89 $ 159,550
Kanaly Trust Co 2016-09-30 0 Sold All -1,300 $ -90 $ 0
Diversified Trust Co 2016-09-30 3,500 Sold Some -1,350 $ -93 $ 243
Hodges Capital Management Inc 2016-09-30 37,280 Sold Some -1,425 $ -99 $ 2,591
Teacher Retirement System Of Texas 2016-09-30 6,021 Sold Some -1,846 $ -128 $ 418
Rafferty Asset Management Llc 2016-09-30 3,666 Sold Some -2,343 $ -162 $ 254
Bartlett Co Llc 2016-09-30 427,969 Sold Some -2,869 $ -199 $ 29,748
Tctc Holdings Llc 2016-09-30 273,473 Sold Some -2,925 $ -203 $ 19,009
Profund Advisors Llc 2016-09-30 8,142 Sold Some -2,982 $ -207 $ 565
Rench Wealth Management Inc 2016-09-30 0 Sold All -3,200 $ -222 $ 0
Commerce Bank 2016-09-30 43,069 Sold Some -3,254 $ -226 $ 2,993
Swiss National Bank 2016-09-30 89,300 Sold Some -3,300 $ -229 $ 6,207
Us Bancorp De 2016-09-30 6,580 Sold Some -3,555 $ -247 $ 457
Gsa Capital Partners Llp 2016-09-30 0 Sold All -3,910 $ -271 $ 0
Advisors Asset Management Inc 2016-09-30 9,985 Sold Some -4,030 $ -280 $ 694
Fisher Asset Management Llc 2016-09-30 247,793 Sold Some -4,409 $ -306 $ 17,224
Dynamic Capital Management Ltd 2016-09-30 0 Sold All -4,480 $ -311 $ 0
Omers Administration Corp 2016-09-30 0 Sold All -4,800 $ -333 $ 0
Rockefeller Financial Services Inc 2016-09-30 0 Sold All -4,971 $ -345 $ 0
Sciencast Management Lp 2016-09-30 0 Sold All -5,000 $ -347 $ 0
United Services Automobile Association 2016-09-30 3,200 Sold Some -5,340 $ -371 $ 222
Shelton Capital Management 2016-09-30 0 Sold All -5,755 $ -400 $ 0
Nationwide Fund Advisors 2016-09-30 247,306 Sold Some -5,800 $ -403 $ 17,190
First Mercantile Trust Co 2016-09-30 0 Sold All -6,250 $ -434 $ 0
Pacad Investment Ltd 2016-09-30 4,840 Sold Some -6,660 $ -462 $ 336
Westfield Capital Management Co Lp 2016-09-30 273,256 Sold Some -7,745 $ -538 $ 18,994
Alpine Woods Capital Investors Llc 2016-09-30 0 Sold All -11,700 $ -813 $ 0
Bridgewater Associates Lp 2016-09-30 0 Sold All -13,272 $ -922 $ 0
Sg Americas Securities Llc 2016-09-30 1,974 Sold Some -14,370 $ -998 $ 137
Teachers Advisors Inc 2016-09-30 81,397 Sold Some -15,373 $ -1,068 $ 5,657
Sprucegrove Investment Management Ltd 2016-09-30 402,400 Sold Some -16,300 $ -1,133 $ 27,970
Pinebridge Investments L P 2016-09-30 1,300 Sold Some -16,390 $ -1,139 $ 90
Ironbridge Capital Management Lp 2016-09-30 142,664 Sold Some -19,164 $ -1,332 $ 9,916
Nuance Investments Llc 2016-09-30 0 Sold All -22,768 $ -1,582 $ 0
Rhumbline Advisers 2016-09-30 89,454 Sold Some -25,179 $ -1,750 $ 6,217
Peak6 Investments L P 2016-09-30 9,700 Sold Some -26,100 $ -1,814 $ 674
Btim Corp 2016-09-30 25,561 Sold Some -29,099 $ -2,022 $ 1,776
Ariel Investments Llc 2016-09-30 0 Sold All -30,850 $ -2,144 $ 0
Beacon Financial Group 2016-09-30 108,801 Sold Some -33,226 $ -2,309 $ 7,562
Yost Capital Management L L C 2016-09-30 193,540 Sold Some -37,260 $ -2,589 $ 13,452
Folger Hill Asset Management Lp 2016-09-30 0 Sold All -47,374 $ -3,292 $ 0
Cutler Group Lp 2016-09-30 41,445 Sold Some -51,569 $ -3,584 $ 2,880
Crossvault Capital Management Llc 2016-09-30 6,880 Sold Some -64,324 $ -4,471 $ 478
New York State Common Retirement Fund 2016-09-30 115,100 Sold Some -66,200 $ -4,601 $ 8,000
Emerald Acquisition Ltd 2016-09-30 50,534 Sold Some -76,394 $ -5,310 $ 3,512
Aristotle Capital Management Llc 2016-09-30 1,695,770 Sold Some -76,488 $ -5,316 $ 117,872
Deprince Race Zollo Inc 2016-09-30 434,147 Sold Some -80,498 $ -5,595 $ 30,177
Kempen Capital Management N V 2016-09-30 15,050 Sold Some -321,427 $ -22,342 $ 1,046